sensor_id;sensor_type;location;lat;lon;timestamp;P1;durP1;ratioP1;P2;durP2;ratioP2
7563;SDS011;3823;53.586;10.040;2023-05-10T04:01:46;8.60;;;4.82;;
7563;SDS011;3823;53.586;10.040;2023-05-10T04:04:11;5.20;;;4.70;;
7563;SDS011;3823;53.586;10.040;2023-05-10T04:06:37;5.07;;;4.60;;
7563;SDS011;3823;53.586;10.040;2023-05-10T04:09:04;8.15;;;4.93;;
7563;SDS011;3823;53.586;10.040;2023-05-10T04:11:29;6.93;;;5.32;;
7563;SDS011;3823;53.586;10.040;2023-05-10T04:13:55;7.57;;;5.20;;
7563;SDS011;3823;53.586;10.040;2023-05-10T04:16:20;6.38;;;5.10;;
7563;SDS011;3823;53.586;10.040;2023-05-10T04:18:46;5.85;;;5.35;;
7563;SDS011;3823;53.586;10.040;2023-05-10T04:21:12;5.53;;;5.03;;
7563;SDS011;3823;53.586;10.040;2023-05-10T04:23:40;8.50;;;4.80;;
7563;SDS011;3823;53.586;10.040;2023-05-10T04:26:06;5.00;;;4.53;;
7563;SDS011;3823;53.586;10.040;2023-05-10T04:28:32;12.18;;;8.60;;
7563;SDS011;3823;53.586;10.040;2023-05-10T04:31:04;6.05;;;4.90;;
7563;SDS011;3823;53.586;10.040;2023-05-10T04:33:30;5.82;;;4.70;;
7563;SDS011;3823;53.586;10.040;2023-05-10T04:35:56;6.90;;;4.85;;
7563;SDS011;3823;53.586;10.040;2023-05-10T04:38:21;6.70;;;5.85;;
7563;SDS011;3823;53.586;10.040;2023-05-10T04:40:47;13.80;;;8.13;;
7563;SDS011;3823;53.586;10.040;2023-05-10T04:43:12;8.38;;;6.07;;
7563;SDS011;3823;53.586;10.040;2023-05-10T04:45:38;6.50;;;5.47;;
7563;SDS011;3823;53.586;10.040;2023-05-10T04:48:04;17.42;;;5.50;;
7563;SDS011;3823;53.586;10.040;2023-05-10T04:50:30;7.55;;;5.43;;
7563;SDS011;3823;53.586;10.040;2023-05-10T04:52:55;5.78;;;5.20;;
7563;SDS011;3823;53.586;10.040;2023-05-10T04:55:21;8.00;;;5.75;;
7563;SDS011;3823;53.586;10.040;2023-05-10T04:57:46;7.38;;;5.68;;
7563;SDS011;3823;53.586;10.040;2023-05-10T05:00:12;5.60;;;5.00;;
7563;SDS011;3823;53.586;10.040;2023-05-10T05:02:38;5.03;;;4.50;;
7563;SDS011;3823;53.586;10.040;2023-05-10T05:05:06;6.38;;;5.38;;
7563;SDS011;3823;53.586;10.040;2023-05-10T05:07:32;8.00;;;5.38;;
7563;SDS011;3823;53.586;10.040;2023-05-10T05:09:58;7.40;;;5.28;;
7563;SDS011;3823;53.586;10.040;2023-05-10T05:12:23;7.82;;;5.82;;
7563;SDS011;3823;53.586;10.040;2023-05-10T05:14:49;10.25;;;4.80;;
7563;SDS011;3823;53.586;10.040;2023-05-10T05:17:15;7.30;;;5.07;;
7563;SDS011;3823;53.586;10.040;2023-05-10T05:19:40;5.32;;;4.82;;
7563;SDS011;3823;53.586;10.040;2023-05-10T05:22:06;6.30;;;5.20;;
7563;SDS011;3823;53.586;10.040;2023-05-10T05:24:36;5.88;;;5.20;;
7563;SDS011;3823;53.586;10.040;2023-05-10T05:27:05;5.45;;;4.60;;
7563;SDS011;3823;53.586;10.040;2023-05-10T05:29:31;5.95;;;4.90;;
7563;SDS011;3823;53.586;10.040;2023-05-10T05:31:56;6.82;;;6.13;;
7563;SDS011;3823;53.586;10.040;2023-05-10T05:34:22;5.85;;;5.00;;
7563;SDS011;3823;53.586;10.040;2023-05-10T05:36:48;11.50;;;5.38;;
7563;SDS011;3823;53.586;10.040;2023-05-10T05:39:13;5.97;;;4.63;;
7563;SDS011;3823;53.586;10.040;2023-05-10T05:41:39;14.90;;;4.88;;
7563;SDS011;3823;53.586;10.040;2023-05-10T05:44:04;5.82;;;5.32;;
7563;SDS011;3823;53.586;10.040;2023-05-10T05:46:30;5.22;;;4.72;;
7563;SDS011;3823;53.586;10.040;2023-05-10T05:48:55;6.03;;;4.30;;
7563;SDS011;3823;53.586;10.040;2023-05-10T05:51:21;5.30;;;4.90;;
7563;SDS011;3823;53.586;10.040;2023-05-10T05:53:47;5.00;;;4.70;;
7563;SDS011;3823;53.586;10.040;2023-05-10T05:56:12;4.85;;;4.40;;
7563;SDS011;3823;53.586;10.040;2023-05-10T05:58:38;5.22;;;4.72;;
7563;SDS011;3823;53.586;10.040;2023-05-10T06:01:04;5.50;;;5.00;;
7563;SDS011;3823;53.586;10.040;2023-05-10T06:03:29;11.40;;;5.18;;
7563;SDS011;3823;53.586;10.040;2023-05-10T06:05:55;7.20;;;5.45;;
7563;SDS011;3823;53.586;10.040;2023-05-10T06:08:20;9.27;;;6.55;;
7563;SDS011;3823;53.586;10.040;2023-05-10T06:10:46;5.65;;;5.07;;
7563;SDS011;3823;53.586;10.040;2023-05-10T06:13:12;5.38;;;4.97;;
7563;SDS011;3823;53.586;10.040;2023-05-10T06:15:37;7.70;;;4.60;;
7563;SDS011;3823;53.586;10.040;2023-05-10T06:18:03;8.95;;;4.93;;
7563;SDS011;3823;53.586;10.040;2023-05-10T06:20:29;7.43;;;5.13;;
7563;SDS011;3823;53.586;10.040;2023-05-10T06:22:56;8.48;;;5.05;;
7563;SDS011;3823;53.586;10.040;2023-05-10T06:25:22;5.03;;;4.50;;
7563;SDS011;3823;53.586;10.040;2023-05-10T06:27:48;7.20;;;5.10;;
7563;SDS011;3823;53.586;10.040;2023-05-10T06:30:13;5.55;;;4.97;;
7563;SDS011;3823;53.586;10.040;2023-05-10T06:32:40;5.10;;;4.60;;
7563;SDS011;3823;53.586;10.040;2023-05-10T06:35:06;5.35;;;4.32;;
7563;SDS011;3823;53.586;10.040;2023-05-10T06:37:32;4.68;;;4.28;;
7563;SDS011;3823;53.586;10.040;2023-05-10T06:39:58;6.82;;;4.72;;
7563;SDS011;3823;53.586;10.040;2023-05-10T06:42:23;7.70;;;5.38;;
7563;SDS011;3823;53.586;10.040;2023-05-10T06:44:50;7.85;;;5.32;;
7563;SDS011;3823;53.586;10.040;2023-05-10T06:47:16;7.68;;;5.10;;
7563;SDS011;3823;53.586;10.040;2023-05-10T06:49:42;12.00;;;4.85;;
7563;SDS011;3823;53.586;10.040;2023-05-10T06:52:07;5.70;;;5.13;;
7563;SDS011;3823;53.586;10.040;2023-05-10T06:54:33;5.25;;;4.85;;
7563;SDS011;3823;53.586;10.040;2023-05-10T06:56:58;5.10;;;4.70;;
7563;SDS011;3823;53.586;10.040;2023-05-10T06:59:24;7.63;;;5.20;;
7563;SDS011;3823;53.586;10.040;2023-05-10T07:01:50;5.40;;;4.90;;
7563;SDS011;3823;53.586;10.040;2023-05-10T07:04:16;11.93;;;7.30;;
7563;SDS011;3823;53.586;10.040;2023-05-10T07:06:42;7.82;;;6.13;;
7563;SDS011;3823;53.586;10.040;2023-05-10T07:09:08;5.80;;;4.82;;
7563;SDS011;3823;53.586;10.040;2023-05-10T07:11:33;5.72;;;5.13;;
7563;SDS011;3823;53.586;10.040;2023-05-10T07:13:59;5.82;;;5.32;;
7563;SDS011;3823;53.586;10.040;2023-05-10T07:16:24;5.75;;;5.20;;
7563;SDS011;3823;53.586;10.040;2023-05-10T07:18:50;6.85;;;5.10;;
7563;SDS011;3823;53.586;10.040;2023-05-10T07:21:17;7.05;;;5.25;;
7563;SDS011;3823;53.586;10.040;2023-05-10T07:23:43;6.32;;;5.60;;
7563;SDS011;3823;53.586;10.040;2023-05-10T07:26:08;5.45;;;4.93;;
7563;SDS011;3823;53.586;10.040;2023-05-10T07:28:35;5.22;;;4.82;;
7563;SDS011;3823;53.586;10.040;2023-05-10T07:31:02;5.82;;;5.18;;
7563;SDS011;3823;53.586;10.040;2023-05-10T07:33:27;5.03;;;4.63;;
7563;SDS011;3823;53.586;10.040;2023-05-10T07:35:53;5.82;;;5.13;;
7563;SDS011;3823;53.586;10.040;2023-05-10T07:38:18;5.65;;;4.95;;
7563;SDS011;3823;53.586;10.040;2023-05-10T07:40:44;13.52;;;5.32;;
7563;SDS011;3823;53.586;10.040;2023-05-10T07:43:09;5.78;;;5.20;;
7563;SDS011;3823;53.586;10.040;2023-05-10T07:45:35;10.40;;;5.63;;
7563;SDS011;3823;53.586;10.040;2023-05-10T07:48:00;5.97;;;5.45;;
7563;SDS011;3823;53.586;10.040;2023-05-10T07:50:26;5.93;;;5.43;;
7563;SDS011;3823;53.586;10.040;2023-05-10T07:52:52;5.88;;;5.07;;
7563;SDS011;3823;53.586;10.040;2023-05-10T07:55:18;5.88;;;4.55;;
7563;SDS011;3823;53.586;10.040;2023-05-10T07:57:44;7.47;;;6.53;;
7563;SDS011;3823;53.586;10.040;2023-05-10T08:00:11;5.15;;;4.22;;
7563;SDS011;3823;53.586;10.040;2023-05-10T08:02:38;6.10;;;4.82;;
7563;SDS011;3823;53.586;10.040;2023-05-10T08:05:04;5.50;;;5.10;;
7563;SDS011;3823;53.586;10.040;2023-05-10T08:07:30;4.95;;;4.32;;
7563;SDS011;3823;53.586;10.040;2023-05-10T08:09:55;8.23;;;5.32;;
7563;SDS011;3823;53.586;10.040;2023-05-10T08:12:21;7.53;;;5.63;;
7563;SDS011;3823;53.586;10.040;2023-05-10T08:14:47;6.40;;;5.80;;
7563;SDS011;3823;53.586;10.040;2023-05-10T08:17:12;5.90;;;5.40;;
7563;SDS011;3823;53.586;10.040;2023-05-10T08:19:38;6.28;;;4.93;;
7563;SDS011;3823;53.586;10.040;2023-05-10T08:22:03;5.22;;;4.75;;
7563;SDS011;3823;53.586;10.040;2023-05-10T08:24:29;6.95;;;4.95;;
7563;SDS011;3823;53.586;10.040;2023-05-10T08:26:54;6.07;;;5.47;;
7563;SDS011;3823;53.586;10.040;2023-05-10T08:29:20;8.23;;;6.07;;
7563;SDS011;3823;53.586;10.040;2023-05-10T08:31:45;6.20;;;5.07;;
7563;SDS011;3823;53.586;10.040;2023-05-10T08:34:11;8.68;;;5.38;;
7563;SDS011;3823;53.586;10.040;2023-05-10T08:36:36;11.60;;;5.90;;
7563;SDS011;3823;53.586;10.040;2023-05-10T08:39:02;10.68;;;6.43;;
7563;SDS011;3823;53.586;10.040;2023-05-10T08:41:28;9.43;;;5.90;;
7563;SDS011;3823;53.586;10.040;2023-05-10T08:43:58;5.88;;;5.38;;
7563;SDS011;3823;53.586;10.040;2023-05-10T08:46:27;12.23;;;4.60;;
7563;SDS011;3823;53.586;10.040;2023-05-10T08:48:53;7.60;;;6.40;;
7563;SDS011;3823;53.586;10.040;2023-05-10T08:51:21;10.25;;;4.95;;
7563;SDS011;3823;53.586;10.040;2023-05-10T08:53:51;8.40;;;4.88;;
7563;SDS011;3823;53.586;10.040;2023-05-10T08:56:17;6.95;;;5.38;;
7563;SDS011;3823;53.586;10.040;2023-05-10T08:58:43;7.70;;;5.47;;
7563;SDS011;3823;53.586;10.040;2023-05-10T09:01:09;6.63;;;5.88;;
7563;SDS011;3823;53.586;10.040;2023-05-10T09:03:35;8.82;;;5.97;;
7563;SDS011;3823;53.586;10.040;2023-05-10T09:06:03;6.97;;;5.15;;
7563;SDS011;3823;53.586;10.040;2023-05-10T09:08:28;7.80;;;5.25;;
7563;SDS011;3823;53.586;10.040;2023-05-10T09:10:56;7.35;;;5.88;;
7563;SDS011;3823;53.586;10.040;2023-05-10T09:13:22;5.28;;;4.78;;
7563;SDS011;3823;53.586;10.040;2023-05-10T09:15:49;6.78;;;5.95;;
7563;SDS011;3823;53.586;10.040;2023-05-10T09:18:16;12.50;;;6.25;;
7563;SDS011;3823;53.586;10.040;2023-05-10T09:20:41;9.60;;;5.78;;
7563;SDS011;3823;53.586;10.040;2023-05-10T09:23:07;5.63;;;5.13;;
7563;SDS011;3823;53.586;10.040;2023-05-10T09:25:33;6.20;;;5.63;;
7563;SDS011;3823;53.586;10.040;2023-05-10T09:27:58;14.23;;;5.95;;
7563;SDS011;3823;53.586;10.040;2023-05-10T09:32:51;8.45;;;5.85;;
7563;SDS011;3823;53.586;10.040;2023-05-10T09:35:18;6.03;;;5.50;;
7563;SDS011;3823;53.586;10.040;2023-05-10T09:37:45;5.95;;;5.45;;
7563;SDS011;3823;53.586;10.040;2023-05-10T09:40:13;6.60;;;5.90;;
7563;SDS011;3823;53.586;10.040;2023-05-10T09:42:42;10.38;;;6.03;;
7563;SDS011;3823;53.586;10.040;2023-05-10T09:45:15;12.00;;;6.45;;
7563;SDS011;3823;53.586;10.040;2023-05-10T09:47:40;5.78;;;5.28;;
7563;SDS011;3823;53.586;10.040;2023-05-10T09:50:06;10.93;;;6.82;;
7563;SDS011;3823;53.586;10.040;2023-05-10T09:52:48;7.85;;;7.00;;
7563;SDS011;3823;53.586;10.040;2023-05-10T09:55:22;8.45;;;6.03;;
7563;SDS011;3823;53.586;10.040;2023-05-10T09:58:00;10.18;;;6.70;;
7563;SDS011;3823;53.586;10.040;2023-05-10T10:00:27;8.10;;;6.38;;
7563;SDS011;3823;53.586;10.040;2023-05-10T10:02:57;8.18;;;6.13;;
7563;SDS011;3823;53.586;10.040;2023-05-10T10:05:33;7.50;;;6.43;;
7563;SDS011;3823;53.586;10.040;2023-05-10T10:08:01;7.85;;;6.60;;
7563;SDS011;3823;53.586;10.040;2023-05-10T10:10:28;7.57;;;6.82;;
7563;SDS011;3823;53.586;10.040;2023-05-10T10:12:54;7.82;;;7.13;;
7563;SDS011;3823;53.586;10.040;2023-05-10T10:15:20;11.32;;;7.88;;
7563;SDS011;3823;53.586;10.040;2023-05-10T10:17:48;8.32;;;7.63;;
7563;SDS011;3823;53.586;10.040;2023-05-10T10:20:14;12.02;;;7.22;;
7563;SDS011;3823;53.586;10.040;2023-05-10T10:22:40;11.15;;;8.00;;
7563;SDS011;3823;53.586;10.040;2023-05-10T10:25:05;7.85;;;7.15;;
7563;SDS011;3823;53.586;10.040;2023-05-10T10:30:21;11.50;;;8.23;;
7563;SDS011;3823;53.586;10.040;2023-05-10T10:36:03;11.63;;;10.52;;
7563;SDS011;3823;53.586;10.040;2023-05-10T10:38:36;11.02;;;8.93;;
7563;SDS011;3823;53.586;10.040;2023-05-10T10:41:33;10.90;;;9.18;;
7563;SDS011;3823;53.586;10.040;2023-05-10T10:49:48;9.68;;;8.68;;
7563;SDS011;3823;53.586;10.040;2023-05-10T10:52:35;12.90;;;8.65;;
7563;SDS011;3823;53.586;10.040;2023-05-10T10:55:08;13.93;;;9.43;;
7563;SDS011;3823;53.586;10.040;2023-05-10T11:02:50;10.82;;;9.70;;
7563;SDS011;3823;53.586;10.040;2023-05-10T11:08:07;14.43;;;10.48;;
7563;SDS011;3823;53.586;10.040;2023-05-10T11:10:32;11.70;;;9.82;;
7563;SDS011;3823;53.586;10.040;2023-05-10T11:13:02;12.00;;;9.63;;
7563;SDS011;3823;53.586;10.040;2023-05-10T11:15:34;10.40;;;9.40;;
7563;SDS011;3823;53.586;10.040;2023-05-10T11:20:50;12.50;;;9.55;;
7563;SDS011;3823;53.586;10.040;2023-05-10T11:23:16;11.32;;;9.60;;
7563;SDS011;3823;53.586;10.040;2023-05-10T11:25:43;12.45;;;9.48;;
7563;SDS011;3823;53.586;10.040;2023-05-10T11:28:10;13.95;;;9.07;;
7563;SDS011;3823;53.586;10.040;2023-05-10T11:30:37;11.15;;;9.95;;
7563;SDS011;3823;53.586;10.040;2023-05-10T11:33:03;12.40;;;10.15;;
7563;SDS011;3823;53.586;10.040;2023-05-10T11:35:29;16.00;;;10.95;;
7563;SDS011;3823;53.586;10.040;2023-05-10T11:37:55;12.20;;;10.15;;
7563;SDS011;3823;53.586;10.040;2023-05-10T11:40:23;9.93;;;8.88;;
7563;SDS011;3823;53.586;10.040;2023-05-10T11:42:49;11.90;;;10.25;;
7563;SDS011;3823;53.586;10.040;2023-05-10T11:45:15;10.68;;;9.57;;
7563;SDS011;3823;53.586;10.040;2023-05-10T11:47:41;12.40;;;10.23;;
7563;SDS011;3823;53.586;10.040;2023-05-10T11:50:08;18.83;;;10.95;;
7563;SDS011;3823;53.586;10.040;2023-05-10T11:52:35;18.58;;;11.73;;
7563;SDS011;3823;53.586;10.040;2023-05-10T11:55:02;13.90;;;12.50;;
7563;SDS011;3823;53.586;10.040;2023-05-10T11:57:28;13.93;;;12.00;;
7563;SDS011;3823;53.586;10.040;2023-05-10T11:59:54;13.18;;;11.82;;
7563;SDS011;3823;53.586;10.040;2023-05-10T12:02:21;16.13;;;12.35;;
7563;SDS011;3823;53.586;10.040;2023-05-10T12:04:46;13.65;;;11.82;;
7563;SDS011;3823;53.586;10.040;2023-05-10T12:07:12;14.77;;;12.65;;
7563;SDS011;3823;53.586;10.040;2023-05-10T12:09:43;20.23;;;14.57;;
7563;SDS011;3823;53.586;10.040;2023-05-10T12:12:10;14.10;;;12.23;;
7563;SDS011;3823;53.586;10.040;2023-05-10T12:14:40;19.77;;;15.93;;
7563;SDS011;3823;53.586;10.040;2023-05-10T12:17:06;14.32;;;12.48;;
7563;SDS011;3823;53.586;10.040;2023-05-10T12:19:38;12.85;;;11.57;;
7563;SDS011;3823;53.586;10.040;2023-05-10T12:22:04;12.90;;;11.70;;
7563;SDS011;3823;53.586;10.040;2023-05-10T12:24:33;13.13;;;11.57;;
7563;SDS011;3823;53.586;10.040;2023-05-10T12:26:59;15.80;;;12.38;;
7563;SDS011;3823;53.586;10.040;2023-05-10T12:29:29;12.70;;;11.27;;
7563;SDS011;3823;53.586;10.040;2023-05-10T12:31:56;12.82;;;11.35;;
7563;SDS011;3823;53.586;10.040;2023-05-10T12:34:32;13.85;;;10.73;;
7563;SDS011;3823;53.586;10.040;2023-05-10T12:37:01;12.95;;;11.65;;
7563;SDS011;3823;53.586;10.040;2023-05-10T12:39:43;13.40;;;11.48;;
7563;SDS011;3823;53.586;10.040;2023-05-10T12:42:10;12.02;;;10.52;;
7563;SDS011;3823;53.586;10.040;2023-05-10T12:44:35;14.60;;;11.45;;
7563;SDS011;3823;53.586;10.040;2023-05-10T12:47:01;15.05;;;11.23;;
7563;SDS011;3823;53.586;10.040;2023-05-10T12:49:26;12.25;;;10.10;;
7563;SDS011;3823;53.586;10.040;2023-05-10T12:51:52;16.88;;;11.38;;
7563;SDS011;3823;53.586;10.040;2023-05-10T12:54:17;11.40;;;10.40;;
7563;SDS011;3823;53.586;10.040;2023-05-10T12:56:43;12.95;;;10.10;;
7563;SDS011;3823;53.586;10.040;2023-05-10T12:59:08;10.70;;;9.77;;
7563;SDS011;3823;53.586;10.040;2023-05-10T13:01:34;10.93;;;9.82;;
7563;SDS011;3823;53.586;10.040;2023-05-10T13:03:59;11.32;;;9.73;;
7563;SDS011;3823;53.586;10.040;2023-05-10T13:06:25;11.93;;;10.77;;
7563;SDS011;3823;53.586;10.040;2023-05-10T13:08:51;14.05;;;10.57;;
7563;SDS011;3823;53.586;10.040;2023-05-10T13:11:16;16.02;;;11.38;;
7563;SDS011;3823;53.586;10.040;2023-05-10T13:13:44;14.40;;;10.35;;
7563;SDS011;3823;53.586;10.040;2023-05-10T13:16:10;13.98;;;11.15;;
7563;SDS011;3823;53.586;10.040;2023-05-10T13:18:35;11.18;;;10.02;;
7563;SDS011;3823;53.586;10.040;2023-05-10T13:21:01;12.00;;;9.48;;
7563;SDS011;3823;53.586;10.040;2023-05-10T13:23:28;11.75;;;9.27;;
7563;SDS011;3823;53.586;10.040;2023-05-10T13:25:54;9.27;;;8.38;;
7563;SDS011;3823;53.586;10.040;2023-05-10T13:28:20;9.07;;;8.18;;
7563;SDS011;3823;53.586;10.040;2023-05-10T13:30:45;8.90;;;8.00;;
7563;SDS011;3823;53.586;10.040;2023-05-10T13:33:11;8.38;;;7.50;;
7563;SDS011;3823;53.586;10.040;2023-05-10T13:35:36;10.95;;;9.20;;
7563;SDS011;3823;53.586;10.040;2023-05-10T13:38:02;10.80;;;9.70;;
7563;SDS011;3823;53.586;10.040;2023-05-10T13:40:27;11.00;;;9.13;;
7563;SDS011;3823;53.586;10.040;2023-05-10T13:42:53;10.35;;;8.98;;
7563;SDS011;3823;53.586;10.040;2023-05-10T13:45:18;9.60;;;8.70;;
7563;SDS011;3823;53.586;10.040;2023-05-10T13:47:44;9.30;;;8.32;;
7563;SDS011;3823;53.586;10.040;2023-05-10T13:50:10;11.35;;;9.25;;
7563;SDS011;3823;53.586;10.040;2023-05-10T13:52:35;9.32;;;8.52;;
7563;SDS011;3823;53.586;10.040;2023-05-10T13:55:01;10.07;;;9.07;;
7563;SDS011;3823;53.586;10.040;2023-05-10T13:57:26;10.52;;;8.90;;
7563;SDS011;3823;53.586;10.040;2023-05-10T13:59:53;9.82;;;9.02;;
7563;SDS011;3823;53.586;10.040;2023-05-10T14:02:19;10.98;;;9.18;;
7563;SDS011;3823;53.586;10.040;2023-05-10T14:04:44;10.55;;;9.55;;
7563;SDS011;3823;53.586;10.040;2023-05-10T14:07:10;12.10;;;9.65;;
7563;SDS011;3823;53.586;10.040;2023-05-10T14:09:36;8.98;;;8.10;;
7563;SDS011;3823;53.586;10.040;2023-05-10T14:12:01;10.43;;;9.43;;
7563;SDS011;3823;53.586;10.040;2023-05-10T14:14:27;9.85;;;8.73;;
7563;SDS011;3823;53.586;10.040;2023-05-10T14:16:54;9.43;;;8.52;;
7563;SDS011;3823;53.586;10.040;2023-05-10T14:19:19;10.07;;;9.07;;
7563;SDS011;3823;53.586;10.040;2023-05-10T14:21:45;9.15;;;8.35;;
7563;SDS011;3823;53.586;10.040;2023-05-10T14:24:10;10.52;;;9.52;;
7563;SDS011;3823;53.586;10.040;2023-05-10T14:26:36;10.27;;;9.23;;
7563;SDS011;3823;53.586;10.040;2023-05-10T14:29:02;11.73;;;10.52;;
7563;SDS011;3823;53.586;10.040;2023-05-10T14:31:27;10.70;;;9.57;;
7563;SDS011;3823;53.586;10.040;2023-05-10T14:33:55;9.60;;;8.80;;
7563;SDS011;3823;53.586;10.040;2023-05-10T14:36:20;9.32;;;7.90;;
7563;SDS011;3823;53.586;10.040;2023-05-10T14:38:46;8.27;;;7.45;;
7563;SDS011;3823;53.586;10.040;2023-05-10T14:41:11;7.53;;;6.40;;
7563;SDS011;3823;53.586;10.040;2023-05-10T14:43:39;8.20;;;7.25;;
7563;SDS011;3823;53.586;10.040;2023-05-10T14:46:06;8.40;;;7.60;;
7563;SDS011;3823;53.586;10.040;2023-05-10T14:48:31;8.23;;;6.78;;
7563;SDS011;3823;53.586;10.040;2023-05-10T14:50:57;7.85;;;7.05;;
7563;SDS011;3823;53.586;10.040;2023-05-10T14:53:22;7.28;;;6.68;;
7563;SDS011;3823;53.586;10.040;2023-05-10T14:55:48;7.70;;;6.97;;
7563;SDS011;3823;53.586;10.040;2023-05-10T14:58:13;6.88;;;6.28;;
7563;SDS011;3823;53.586;10.040;2023-05-10T15:00:40;8.88;;;7.40;;
7563;SDS011;3823;53.586;10.040;2023-05-10T15:03:05;6.80;;;6.18;;
7563;SDS011;3823;53.586;10.040;2023-05-10T15:05:31;8.07;;;7.38;;
7563;SDS011;3823;53.586;10.040;2023-05-10T15:07:56;8.10;;;7.30;;
7563;SDS011;3823;53.586;10.040;2023-05-10T15:10:22;7.63;;;6.95;;
7563;SDS011;3823;53.586;10.040;2023-05-10T15:12:47;8.85;;;7.57;;
7563;SDS011;3823;53.586;10.040;2023-05-10T15:15:13;7.18;;;6.57;;
7563;SDS011;3823;53.586;10.040;2023-05-10T15:17:39;9.05;;;7.07;;
7563;SDS011;3823;53.586;10.040;2023-05-10T15:20:05;9.27;;;8.35;;
7563;SDS011;3823;53.586;10.040;2023-05-10T15:22:31;9.70;;;7.95;;
7563;SDS011;3823;53.586;10.040;2023-05-10T15:24:57;8.07;;;7.30;;
7563;SDS011;3823;53.586;10.040;2023-05-10T15:27:24;8.55;;;7.82;;
7563;SDS011;3823;53.586;10.040;2023-05-10T15:29:50;8.85;;;7.50;;
7563;SDS011;3823;53.586;10.040;2023-05-10T15:32:15;10.07;;;7.97;;
7563;SDS011;3823;53.586;10.040;2023-05-10T15:34:41;8.30;;;7.50;;
7563;SDS011;3823;53.586;10.040;2023-05-10T15:37:06;9.15;;;7.22;;
7563;SDS011;3823;53.586;10.040;2023-05-10T15:39:32;12.73;;;8.00;;
7563;SDS011;3823;53.586;10.040;2023-05-10T15:41:57;19.33;;;9.05;;
7563;SDS011;3823;53.586;10.040;2023-05-10T15:44:23;8.10;;;7.30;;
7563;SDS011;3823;53.586;10.040;2023-05-10T15:46:49;16.30;;;9.32;;
7563;SDS011;3823;53.586;10.040;2023-05-10T15:49:14;7.47;;;6.57;;
7563;SDS011;3823;53.586;10.040;2023-05-10T15:51:40;7.63;;;6.63;;
7563;SDS011;3823;53.586;10.040;2023-05-10T15:54:06;9.98;;;7.65;;
7563;SDS011;3823;53.586;10.040;2023-05-10T15:56:31;6.43;;;5.80;;
7563;SDS011;3823;53.586;10.040;2023-05-10T15:58:58;7.70;;;7.00;;
7563;SDS011;3823;53.586;10.040;2023-05-10T16:01:23;6.47;;;5.45;;
7563;SDS011;3823;53.586;10.040;2023-05-10T16:03:49;6.88;;;6.13;;
7563;SDS011;3823;53.586;10.040;2023-05-10T16:06:15;7.10;;;6.07;;
7563;SDS011;3823;53.586;10.040;2023-05-10T16:08:40;6.80;;;6.20;;
7563;SDS011;3823;53.586;10.040;2023-05-10T16:11:06;7.68;;;6.70;;
7563;SDS011;3823;53.586;10.040;2023-05-10T16:13:31;7.38;;;6.47;;
7563;SDS011;3823;53.586;10.040;2023-05-10T16:15:58;7.22;;;6.47;;
7563;SDS011;3823;53.586;10.040;2023-05-10T16:18:24;7.47;;;6.20;;
7563;SDS011;3823;53.586;10.040;2023-05-10T16:20:49;8.60;;;7.13;;
7563;SDS011;3823;53.586;10.040;2023-05-10T16:23:15;16.35;;;8.48;;
7563;SDS011;3823;53.586;10.040;2023-05-10T16:25:41;9.27;;;8.30;;
7563;SDS011;3823;53.586;10.040;2023-05-10T16:28:06;7.93;;;7.13;;
7563;SDS011;3823;53.586;10.040;2023-05-10T16:30:32;8.55;;;7.65;;
7563;SDS011;3823;53.586;10.040;2023-05-10T16:32:58;9.63;;;7.32;;
7563;SDS011;3823;53.586;10.040;2023-05-10T16:35:25;8.80;;;7.95;;
7563;SDS011;3823;53.586;10.040;2023-05-10T16:37:51;9.25;;;8.35;;
7563;SDS011;3823;53.586;10.040;2023-05-10T16:40:17;9.10;;;8.30;;
7563;SDS011;3823;53.586;10.040;2023-05-10T16:42:43;9.20;;;8.27;;
7563;SDS011;3823;53.586;10.040;2023-05-10T16:45:08;8.88;;;8.02;;
7563;SDS011;3823;53.586;10.040;2023-05-10T16:47:37;12.20;;;7.03;;
7563;SDS011;3823;53.586;10.040;2023-05-10T16:50:04;12.35;;;8.15;;
7563;SDS011;3823;53.586;10.040;2023-05-10T16:52:32;10.45;;;8.30;;
7563;SDS011;3823;53.586;10.040;2023-05-10T16:54:58;10.52;;;9.25;;
7563;SDS011;3823;53.586;10.040;2023-05-10T16:57:24;9.35;;;8.43;;
7563;SDS011;3823;53.586;10.040;2023-05-10T16:59:50;9.90;;;8.40;;
7563;SDS011;3823;53.586;10.040;2023-05-10T17:02:19;9.10;;;8.25;;
7563;SDS011;3823;53.586;10.040;2023-05-10T17:04:44;8.45;;;7.63;;
7563;SDS011;3823;53.586;10.040;2023-05-10T17:07:10;9.88;;;8.10;;
7563;SDS011;3823;53.586;10.040;2023-05-10T17:09:37;8.40;;;7.10;;
7563;SDS011;3823;53.586;10.040;2023-05-10T17:12:03;8.95;;;7.28;;
7563;SDS011;3823;53.586;10.040;2023-05-10T17:14:28;8.68;;;7.88;;
7563;SDS011;3823;53.586;10.040;2023-05-10T17:16:54;7.43;;;6.72;;
7563;SDS011;3823;53.586;10.040;2023-05-10T17:19:19;7.05;;;6.45;;
7563;SDS011;3823;53.586;10.040;2023-05-10T17:21:45;7.68;;;6.88;;
7563;SDS011;3823;53.586;10.040;2023-05-10T17:24:11;7.75;;;7.05;;
7563;SDS011;3823;53.586;10.040;2023-05-10T17:26:37;8.20;;;6.60;;
7563;SDS011;3823;53.586;10.040;2023-05-10T17:29:02;7.22;;;6.68;;
7563;SDS011;3823;53.586;10.040;2023-05-10T17:31:28;8.88;;;7.97;;
7563;SDS011;3823;53.586;10.040;2023-05-10T17:33:53;9.80;;;7.35;;
7563;SDS011;3823;53.586;10.040;2023-05-10T17:36:19;8.52;;;6.53;;
7563;SDS011;3823;53.586;10.040;2023-05-10T17:38:45;7.00;;;6.32;;
7563;SDS011;3823;53.586;10.040;2023-05-10T17:41:10;7.15;;;6.45;;
7563;SDS011;3823;53.586;10.040;2023-05-10T17:43:36;6.75;;;6.25;;
7563;SDS011;3823;53.586;10.040;2023-05-10T17:46:02;6.97;;;6.28;;
7563;SDS011;3823;53.586;10.040;2023-05-10T17:48:27;7.13;;;6.43;;
7563;SDS011;3823;53.586;10.040;2023-05-10T17:50:53;6.68;;;6.07;;
7563;SDS011;3823;53.586;10.040;2023-05-10T17:53:18;6.72;;;6.15;;
7563;SDS011;3823;53.586;10.040;2023-05-10T17:55:44;5.95;;;5.53;;
7563;SDS011;3823;53.586;10.040;2023-05-10T17:58:10;10.23;;;7.18;;
7563;SDS011;3823;53.586;10.040;2023-05-10T18:00:36;6.72;;;6.13;;
7563;SDS011;3823;53.586;10.040;2023-05-10T18:03:02;7.38;;;6.38;;
7563;SDS011;3823;53.586;10.040;2023-05-10T18:05:28;7.32;;;6.72;;
7563;SDS011;3823;53.586;10.040;2023-05-10T18:07:54;7.60;;;6.97;;
7563;SDS011;3823;53.586;10.040;2023-05-10T18:10:20;7.65;;;6.95;;
7563;SDS011;3823;53.586;10.040;2023-05-10T18:12:46;7.97;;;7.25;;
7563;SDS011;3823;53.586;10.040;2023-05-10T18:15:14;8.73;;;7.85;;
7563;SDS011;3823;53.586;10.040;2023-05-10T18:17:40;7.10;;;6.50;;
7563;SDS011;3823;53.586;10.040;2023-05-10T18:20:06;7.60;;;6.90;;
7563;SDS011;3823;53.586;10.040;2023-05-10T18:22:32;8.07;;;7.28;;
7563;SDS011;3823;53.586;10.040;2023-05-10T18:24:58;8.70;;;7.80;;
7563;SDS011;3823;53.586;10.040;2023-05-10T18:27:23;8.05;;;7.20;;
7563;SDS011;3823;53.586;10.040;2023-05-10T18:29:49;8.07;;;7.30;;
7563;SDS011;3823;53.586;10.040;2023-05-10T18:32:14;8.38;;;7.57;;
7563;SDS011;3823;53.586;10.040;2023-05-10T18:34:40;8.40;;;7.53;;
7563;SDS011;3823;53.586;10.040;2023-05-10T18:37:06;9.00;;;8.20;;
7563;SDS011;3823;53.586;10.040;2023-05-10T18:39:35;7.80;;;7.10;;
7563;SDS011;3823;53.586;10.040;2023-05-10T18:42:02;7.40;;;6.70;;
7563;SDS011;3823;53.586;10.040;2023-05-10T18:44:29;7.05;;;6.35;;
7563;SDS011;3823;53.586;10.040;2023-05-10T18:46:54;7.32;;;6.45;;
7563;SDS011;3823;53.586;10.040;2023-05-10T18:49:20;6.45;;;5.95;;
7563;SDS011;3823;53.586;10.040;2023-05-10T18:51:46;7.15;;;6.47;;
7563;SDS011;3823;53.586;10.040;2023-05-10T18:54:12;6.53;;;5.93;;
7563;SDS011;3823;53.586;10.040;2023-05-10T18:56:39;7.25;;;6.55;;
7563;SDS011;3823;53.586;10.040;2023-05-10T18:59:08;10.02;;;7.65;;
7563;SDS011;3823;53.586;10.040;2023-05-10T19:01:39;7.65;;;6.88;;
7563;SDS011;3823;53.586;10.040;2023-05-10T19:04:05;8.27;;;7.32;;
7563;SDS011;3823;53.586;10.040;2023-05-10T19:06:32;9.02;;;8.00;;
7563;SDS011;3823;53.586;10.040;2023-05-10T19:08:58;9.57;;;7.65;;
7563;SDS011;3823;53.586;10.040;2023-05-10T19:11:23;7.97;;;7.18;;
7563;SDS011;3823;53.586;10.040;2023-05-10T19:13:49;7.80;;;7.00;;
7563;SDS011;3823;53.586;10.040;2023-05-10T19:16:15;7.65;;;6.80;;